Time;durP1;ratioP1;P1;durP2;ratioP2;P2;SDS_P1;SDS_P2;PMS_P1;PMS_P2;Temp;Humidity;BMP_temperature;BMP_pressure;BME280_temperature;BME280_humidity;BME280_pressure;Samples;Min_cycle;Max_cycle;Signal;HPM_P1;HPM_P2
2021/05/11 00:00:29;;;;;;;4.18;2.80;;;;;;;;;;5100199;28;20020;-81
2021/05/11 00:02:55;;;;;;;5.75;3.25;;;;;;;;;;5100164;28;20020;-81
2021/05/11 00:05:21;;;;;;;6.13;3.28;;;;;;;;;;5099987;28;20024;-81
2021/05/11 00:07:47;;;;;;;5.53;3.30;;;;;;;;;;5100002;28;20426;-81
2021/05/11 00:10:13;;;;;;;5.80;3.33;;;;;;;;;;5098924;28;20318;-81
2021/05/11 00:12:40;;;;;;;4.97;3.13;;;;;;;;;;5099014;28;20093;-81
2021/05/11 00:15:06;;;;;;;3.92;2.60;;;;;;;;;;5100162;28;20013;-81
2021/05/11 00:17:32;;;;;;;6.93;3.15;;;;;;;;;;5098844;28;20027;-83
2021/05/11 00:19:59;;;;;;;5.47;2.50;;;;;;;;;;5099928;28;20032;-82
2021/05/11 00:22:25;;;;;;;6.47;2.72;;;;;;;;;;5099925;28;20020;-82
2021/05/11 00:24:51;;;;;;;5.18;2.55;;;;;;;;;;5099920;28;20412;-82
2021/05/11 00:27:17;;;;;;;8.70;2.15;;;;;;;;;;5099859;28;20103;-82
2021/05/11 00:29:43;;;;;;;5.15;2.10;;;;;;;;;;5099736;28;20032;-82
2021/05/11 00:32:10;;;;;;;8.15;2.42;;;;;;;;;;5098744;28;20032;-82
2021/05/11 00:34:36;;;;;;;3.92;2.00;;;;;;;;;;5099879;28;20016;-84
2021/05/11 00:37:02;;;;;;;5.82;2.05;;;;;;;;;;5099981;28;20031;-84
2021/05/11 00:39:28;;;;;;;3.17;1.70;;;;;;;;;;5099755;28;20458;-83
2021/05/11 00:41:54;;;;;;;6.03;2.20;;;;;;;;;;5099883;28;20032;-83
2021/05/11 00:44:20;;;;;;;4.60;1.80;;;;;;;;;;5098360;28;20051;-82
2021/05/11 00:47:01;;;;;;;5.00;2.42;;;;;;;;;;5099376;28;20028;-83
2021/05/11 00:49:28;;;;;;;7.20;2.38;;;;;;;;;;5099579;28;20034;-83
2021/05/11 00:51:54;;;;;;;6.00;2.00;;;;;;;;;;5099415;28;20112;-83
2021/05/11 00:54:21;;;;;;;6.65;3.10;;;;;;;;;;5098302;28;20032;-82
2021/05/11 00:56:48;;;;;;;4.78;2.05;;;;;;;;;;5099296;28;20024;-82
2021/05/11 00:59:24;;;;;;;5.63;1.95;;;;;;;;;;5099104;28;20023;-82
2021/05/11 01:01:50;;;;;;;3.00;1.80;;;;;;;;;;5098880;28;20032;-82
2021/05/11 01:04:16;;;;;;;4.00;1.88;;;;;;;;;;5099190;28;20051;-82
2021/05/11 01:06:42;;;;;;;5.07;2.22;;;;;;;;;;5099049;28;20065;-82
2021/05/11 01:09:08;;;;;;;4.07;2.33;;;;;;;;;;5099070;28;20032;-82
2021/05/11 01:11:36;;;;;;;4.78;1.80;;;;;;;;;;5098996;28;20426;-83
2021/05/11 01:14:02;;;;;;;4.95;2.22;;;;;;;;;;5098774;28;20020;-82
2021/05/11 01:16:30;;;;;;;8.35;2.08;;;;;;;;;;5098716;28;20107;-82
2021/05/11 01:19:16;;;;;;;8.63;2.88;;;;;;;;;;5099024;28;20047;-83
2021/05/11 01:24:22;;;;;;;6.88;3.30;;;;;;;;;;5098765;28;20039;-83
2021/05/11 02:23:10;;;;;;;3.85;2.60;;;;;;;;;;5098180;28;20035;-83
2021/05/11 02:25:36;;;;;;;7.53;2.60;;;;;;;;;;5097998;28;20106;-83
2021/05/11 02:28:02;;;;;;;3.60;2.03;;;;;;;;;;5097433;28;20114;-83
2021/05/11 02:30:29;;;;;;;6.20;3.20;;;;;;;;;;5096248;28;20028;-81
2021/05/11 02:32:55;;;;;;;5.90;2.88;;;;;;;;;;5096558;28;20035;-81
2021/05/11 02:35:21;;;;;;;4.80;2.80;;;;;;;;;;5097309;28;20395;-83
2021/05/11 02:37:47;;;;;;;6.47;2.63;;;;;;;;;;5097484;28;20032;-82
2021/05/11 02:40:15;;;;;;;8.40;2.45;;;;;;;;;;5097323;28;20406;-82
2021/05/11 02:42:42;;;;;;;6.03;2.35;;;;;;;;;;5097193;28;20028;-82
2021/05/11 02:45:11;;;;;;;8.07;2.35;;;;;;;;;;5097778;28;20032;-82
2021/05/11 02:47:47;;;;;;;5.63;2.42;;;;;;;;;;5097329;28;20103;-82
2021/05/11 02:50:21;;;;;;;5.28;2.45;;;;;;;;;;5097215;28;20082;-82
2021/05/11 02:52:47;;;;;;;6.03;2.63;;;;;;;;;;5097206;28;20028;-82
2021/05/11 02:55:14;;;;;;;4.38;1.98;;;;;;;;;;5097111;28;20095;-82
2021/05/11 02:57:40;;;;;;;4.18;2.50;;;;;;;;;;5097175;28;20027;-82
2021/05/11 03:00:07;;;;;;;8.00;2.67;;;;;;;;;;5096187;28;20111;-83
2021/05/11 03:02:33;;;;;;;4.40;2.55;;;;;;;;;;5097361;28;20127;-83
2021/05/11 03:04:59;;;;;;;4.85;2.58;;;;;;;;;;5097209;28;20070;-83
2021/05/11 03:07:26;;;;;;;3.67;2.13;;;;;;;;;;5096797;28;20080;-82
2021/05/11 03:09:52;;;;;;;4.85;2.33;;;;;;;;;;5100502;28;20055;-83
2021/05/11 03:12:19;;;;;;;4.93;2.58;;;;;;;;;;5100208;28;20028;-83
2021/05/11 03:14:45;;;;;;;5.40;2.60;;;;;;;;;;5101509;28;20349;-83
2021/05/11 03:17:11;;;;;;;4.95;2.90;;;;;;;;;;5100324;28;20110;-83
2021/05/11 03:19:37;;;;;;;6.95;2.33;;;;;;;;;;5101412;28;20024;-81
2021/05/11 03:22:03;;;;;;;14.23;3.17;;;;;;;;;;5101022;28;20028;-81
2021/05/11 03:24:30;;;;;;;6.95;2.80;;;;;;;;;;5101075;28;20023;-81
2021/05/11 03:26:56;;;;;;;8.93;3.67;;;;;;;;;;5100179;28;20032;-82
2021/05/11 03:29:22;;;;;;;3.58;2.15;;;;;;;;;;5100963;28;20097;-82
2021/05/11 03:31:48;;;;;;;6.85;3.40;;;;;;;;;;5099708;28;20036;-82
2021/05/11 03:34:14;;;;;;;5.50;2.78;;;;;;;;;;5100885;28;20095;-82
2021/05/11 03:36:40;;;;;;;8.40;2.45;;;;;;;;;;5101080;28;20020;-83
2021/05/11 03:39:08;;;;;;;9.35;3.05;;;;;;;;;;5100856;28;20032;-83
2021/05/11 03:41:47;;;;;;;4.97;2.47;;;;;;;;;;5100921;28;20035;-83
2021/05/11 03:44:16;;;;;;;5.80;2.70;;;;;;;;;;5100692;28;20020;-83
2021/05/11 03:46:42;;;;;;;5.53;2.40;;;;;;;;;;5099897;28;20036;-83
2021/05/11 03:49:09;;;;;;;6.45;2.28;;;;;;;;;;5100690;28;20032;-83
2021/05/11 03:51:36;;;;;;;9.88;2.95;;;;;;;;;;5099715;28;20042;-82
2021/05/11 03:54:02;;;;;;;5.93;2.40;;;;;;;;;;5100802;28;20091;-83
2021/05/11 03:56:28;;;;;;;7.75;2.75;;;;;;;;;;5100556;28;20031;-83
2021/05/11 03:58:55;;;;;;;4.78;2.30;;;;;;;;;;5099080;28;20055;-82
2021/05/11 04:01:21;;;;;;;10.95;4.57;;;;;;;;;;5100149;28;20024;-82
2021/05/11 04:04:05;;;;;;;11.82;3.92;;;;;;;;;;5100284;28;20027;-82
2021/05/11 04:06:31;;;;;;;8.35;3.22;;;;;;;;;;5098962;28;20046;-82
2021/05/11 04:09:10;;;;;;;7.60;3.05;;;;;;;;;;5100273;28;20024;-83
2021/05/11 04:16:42;;;;;;;8.10;2.78;;;;;;;;;;5100066;28;20028;-82
2021/05/11 04:19:08;;;;;;;5.05;2.30;;;;;;;;;;5099540;28;20452;-83
2021/05/11 04:21:34;;;;;;;8.65;2.80;;;;;;;;;;5100016;28;20042;-83
2021/05/11 04:24:01;;;;;;;6.15;2.42;;;;;;;;;;5099694;28;20419;-83
2021/05/11 04:26:27;;;;;;;6.05;2.80;;;;;;;;;;5098908;28;20024;-83
2021/05/11 04:28:53;;;;;;;6.50;2.85;;;;;;;;;;5098715;28;20028;-79
2021/05/11 04:31:20;;;;;;;6.57;2.80;;;;;;;;;;5099553;28;20023;-79
2021/05/11 04:33:47;;;;;;;6.80;2.70;;;;;;;;;;5098605;28;20107;-80
2021/05/11 04:36:14;;;;;;;6.18;2.80;;;;;;;;;;5099526;28;20406;-79
2021/05/11 04:38:40;;;;;;;8.70;3.30;;;;;;;;;;5099480;28;20432;-79
2021/05/11 04:41:07;;;;;;;7.85;2.58;;;;;;;;;;5099203;28;20291;-79
2021/05/11 04:43:37;;;;;;;8.30;3.25;;;;;;;;;;5099607;28;20020;-79
2021/05/11 04:48:30;;;;;;;8.77;2.72;;;;;;;;;;5099283;28;20031;-79
2021/05/11 04:50:57;;;;;;;8.75;2.58;;;;;;;;;;5099488;28;20111;-76
2021/05/11 04:53:24;;;;;;;3.28;1.95;;;;;;;;;;5099247;28;20489;-76
2021/05/11 04:55:50;;;;;;;10.25;2.65;;;;;;;;;;5099268;28;20024;-76
2021/05/11 04:58:16;;;;;;;3.80;2.25;;;;;;;;;;5099254;28;20020;-76
2021/05/11 05:00:43;;;;;;;7.95;2.60;;;;;;;;;;5096194;28;20016;-75
2021/05/11 05:03:15;;;;;;;5.28;2.25;;;;;;;;;;5097593;28;20024;-76
2021/05/11 05:05:42;;;;;;;5.45;1.90;;;;;;;;;;5097567;28;20340;-76
2021/05/11 05:08:08;;;;;;;5.82;2.00;;;;;;;;;;5097401;28;20044;-79
2021/05/11 05:10:34;;;;;;;5.97;2.20;;;;;;;;;;5098965;28;20021;-76
2021/05/11 05:13:00;;;;;;;5.47;2.40;;;;;;;;;;5098955;28;20016;-77
2021/05/11 05:15:26;;;;;;;7.78;2.40;;;;;;;;;;5098902;28;20020;-77
2021/05/11 05:17:52;;;;;;;4.68;1.90;;;;;;;;;;5098732;28;20028;-77
2021/05/11 05:20:18;;;;;;;5.60;1.80;;;;;;;;;;5098600;28;20024;-77
2021/05/11 05:22:44;;;;;;;5.10;2.10;;;;;;;;;;5098915;28;20364;-77
2021/05/11 05:25:24;;;;;;;4.63;1.83;;;;;;;;;;5098828;28;20020;-76
2021/05/11 05:27:59;;;;;;;10.13;1.90;;;;;;;;;;5098371;28;20437;-75
2021/05/11 05:30:25;;;;;;;10.82;3.75;;;;;;;;;;5098247;28;20039;-79
2021/05/11 05:33:13;;;;;;;8.50;2.00;;;;;;;;;;5097536;28;20024;-76
2021/05/11 05:35:39;;;;;;;5.57;2.00;;;;;;;;;;5098235;28;20054;-83
2021/05/11 05:38:05;;;;;;;6.78;2.03;;;;;;;;;;5098633;28;20058;-81
2021/05/11 05:40:34;;;;;;;2.80;1.90;;;;;;;;;;5098919;28;20030;-81
2021/05/11 05:43:00;;;;;;;4.90;1.70;;;;;;;;;;5098681;28;20032;-81
2021/05/11 05:45:26;;;;;;;6.03;1.48;;;;;;;;;;5097586;28;20338;-81
2021/05/11 05:47:52;;;;;;;3.75;1.48;;;;;;;;;;5110215;28;20394;-81
2021/05/11 05:50:22;;;;;;;7.75;1.95;;;;;;;;;;5118820;28;20031;-80
2021/05/11 05:52:52;;;;;;;13.55;2.47;;;;;;;;;;5132056;27;20063;-81
2021/05/11 05:55:19;;;;;;;3.78;1.50;;;;;;;;;;5132479;27;20035;-81
2021/05/11 05:57:45;;;;;;;7.13;1.80;;;;;;;;;;5139034;27;20424;-81
2021/05/11 06:00:15;;;;;;;6.07;1.80;;;;;;;;;;5139468;27;20029;-81
2021/05/11 06:02:45;;;;;;;4.40;1.60;;;;;;;;;;5139298;27;20027;-80
2021/05/11 06:05:12;;;;;;;3.20;1.35;;;;;;;;;;5139191;27;20057;-80
2021/05/11 06:07:38;;;;;;;3.83;1.65;;;;;;;;;;5139056;27;20030;-80
2021/05/11 06:10:05;;;;;;;3.88;1.63;;;;;;;;;;5138901;27;20096;-81
2021/05/11 06:12:39;;;;;;;6.22;2.25;;;;;;;;;;5138703;27;20309;-80
2021/05/11 06:17:34;;;;;;;6.30;1.67;;;;;;;;;;5129803;27;20081;-80
2021/05/11 06:20:00;;;;;;;4.57;1.95;;;;;;;;;;5096676;28;20036;-80
2021/05/11 06:22:27;;;;;;;8.65;3.17;;;;;;;;;;5107596;28;20444;-81
2021/05/11 06:24:53;;;;;;;8.25;2.88;;;;;;;;;;5114064;28;20039;-81
2021/05/11 06:27:20;;;;;;;11.73;1.83;;;;;;;;;;5108140;28;20421;-81
2021/05/11 06:29:47;;;;;;;4.15;1.45;;;;;;;;;;5097675;28;20406;-82
2021/05/11 06:32:28;;;;;;;2.95;1.70;;;;;;;;;;5097359;28;20067;-81
2021/05/11 06:34:59;;;;;;;4.88;1.83;;;;;;;;;;5097577;28;20103;-81
2021/05/11 06:37:25;;;;;;;5.20;1.75;;;;;;;;;;5097795;28;20054;-81
2021/05/11 06:39:51;;;;;;;6.35;1.50;;;;;;;;;;5097753;28;20043;-81
2021/05/11 06:42:21;;;;;;;3.40;1.42;;;;;;;;;;5097131;28;20066;-81
2021/05/11 06:54:59;;;;;;;5.18;1.70;;;;;;;;;;5097802;28;20190;-81
2021/05/11 06:57:25;;;;;;;4.55;1.75;;;;;;;;;;5096405;28;20028;-81
2021/05/11 06:59:51;;;;;;;4.85;1.70;;;;;;;;;;5095939;28;20032;-81
2021/05/11 07:02:55;;;;;;;17.23;9.27;;;;;;;;;;5096979;28;20051;-79
2021/05/11 07:05:21;;;;;;;23.00;13.95;;;;;;;;;;5096869;28;20360;-79
2021/05/11 07:07:59;;;;;;;20.90;12.05;;;;;;;;;;5097162;28;20059;-80
2021/05/11 07:10:30;;;;;;;6.45;4.18;;;;;;;;;;5096964;28;20036;-79
2021/05/11 07:13:08;;;;;;;12.10;8.00;;;;;;;;;;5097086;28;20036;-81
2021/05/11 07:15:35;;;;;;;26.27;14.70;;;;;;;;;;5097185;28;20464;-81
2021/05/11 07:18:07;;;;;;;9.88;5.13;;;;;;;;;;5099923;28;20027;-77
2021/05/11 07:20:33;;;;;;;7.90;4.25;;;;;;;;;;5099013;28;20028;-81
2021/05/11 07:23:00;;;;;;;5.65;2.70;;;;;;;;;;5097011;28;20031;-81
2021/05/11 07:25:29;;;;;;;20.52;9.25;;;;;;;;;;5097116;28;20024;-81
2021/05/11 07:30:32;;;;;;;15.98;2.85;;;;;;;;;;5100264;28;20043;-81
2021/05/11 07:33:42;;;;;;;8.30;3.10;;;;;;;;;;5117449;28;20418;-82
2021/05/11 07:36:09;;;;;;;12.07;3.92;;;;;;;;;;5116063;28;20367;-81
2021/05/11 07:38:35;;;;;;;8.90;2.70;;;;;;;;;;5116164;28;20418;-79
2021/05/11 07:41:01;;;;;;;8.77;3.03;;;;;;;;;;5099334;28;20340;-80
2021/05/11 07:43:28;;;;;;;9.30;3.75;;;;;;;;;;5115599;28;20294;-81
2021/05/11 08:02:22;;;;;;;23.40;4.03;;;;;;;;;;5080371;28;20505;-81
2021/05/11 08:15:56;;;;;;;17.58;3.60;;;;;;;;;;5078155;28;20160;-81
2021/05/11 08:18:41;;;;;;;6.28;3.47;;;;;;;;;;5077822;28;20056;-81
2021/05/11 08:29:23;;;;;;;7.38;5.03;;;;;;;;;;5038310;28;20068;-81
2021/05/11 08:31:49;;;;;;;8.55;2.42;;;;;;;;;;5037618;28;20163;-81
2021/05/11 08:34:22;;;;;;;8.63;1.92;;;;;;;;;;5037730;28;20109;-81
2021/05/11 08:36:48;;;;;;;5.18;1.80;;;;;;;;;;5037874;28;20030;-82
2021/05/11 08:39:14;;;;;;;19.33;2.80;;;;;;;;;;5037603;28;20079;-82
2021/05/11 08:41:40;;;;;;;10.85;1.90;;;;;;;;;;5020838;28;20132;-82
2021/05/11 08:44:08;;;;;;;5.90;2.10;;;;;;;;;;5037736;28;20156;-81
2021/05/11 08:46:38;;;;;;;4.80;1.77;;;;;;;;;;5037138;28;20428;-81
2021/05/11 08:49:05;;;;;;;8.25;1.60;;;;;;;;;;5037498;28;20057;-81
2021/05/11 08:51:37;;;;;;;7.57;1.70;;;;;;;;;;5037181;28;20034;-81
2021/05/11 09:05:35;;;;;;;6.90;2.92;;;;;;;;;;5078993;28;20078;-81
2021/05/11 09:08:12;;;;;;;3.92;1.77;;;;;;;;;;5078936;28;20028;-74
2021/05/11 09:25:08;;;;;;;7.28;2.78;;;;;;;;;;5076547;28;20066;-77
2021/05/11 09:52:08;;;;;;;7.70;2.90;;;;;;;;;;5076592;28;20032;-86
2021/05/11 10:39:25;;;;;;;6.38;2.30;;;;;;;;;;5022502;28;20359;-76
2021/05/11 10:42:49;;;;;;;8.30;2.30;;;;;;;;;;5055014;28;20040;-76
2021/05/11 10:47:59;;;;;;;7.47;2.35;;;;;;;;;;4956677;29;20043;-75
2021/05/11 10:50:43;;;;;;;10.48;3.15;;;;;;;;;;4957087;29;20059;-76
2021/05/11 10:53:27;;;;;;;7.78;2.35;;;;;;;;;;4957050;29;20067;-76
2021/05/11 10:55:54;;;;;;;10.32;2.67;;;;;;;;;;4957308;29;20050;-76
2021/05/11 10:58:23;;;;;;;5.20;2.22;;;;;;;;;;4956755;28;20118;-77
2021/05/11 11:00:59;;;;;;;8.43;2.22;;;;;;;;;;4975837;28;20038;-76
2021/05/11 11:03:27;;;;;;;9.27;2.45;;;;;;;;;;4979351;28;20472;-76
2021/05/11 11:05:54;;;;;;;4.20;1.98;;;;;;;;;;4995725;28;20456;-76
2021/05/11 11:08:30;;;;;;;7.93;2.25;;;;;;;;;;4995564;28;20348;-76
2021/05/11 11:11:21;;;;;;;5.85;2.03;;;;;;;;;;4995417;28;20077;-76
2021/05/11 11:13:52;;;;;;;5.97;2.05;;;;;;;;;;4979366;28;20053;-76
2021/05/11 11:16:18;;;;;;;4.60;2.30;;;;;;;;;;4995426;28;20042;-76
2021/05/11 11:18:45;;;;;;;4.78;1.85;;;;;;;;;;5033537;28;20054;-76
2021/05/11 11:23:49;;;;;;;6.05;2.03;;;;;;;;;;5076959;28;20319;-76
2021/05/11 11:26:22;;;;;;;10.68;2.25;;;;;;;;;;5076889;28;20044;-76
2021/05/11 11:28:48;;;;;;;8.30;2.25;;;;;;;;;;5076367;28;20024;-76
2021/05/11 11:31:24;;;;;;;5.40;2.10;;;;;;;;;;5080066;28;20067;-76
2021/05/11 11:33:50;;;;;;;8.65;2.45;;;;;;;;;;5080501;28;20036;-76
2021/05/11 11:36:29;;;;;;;8.60;2.00;;;;;;;;;;5080505;28;20021;-76
2021/05/11 11:38:56;;;;;;;6.70;2.28;;;;;;;;;;5080515;28;20055;-76
2021/05/11 11:41:24;;;;;;;4.10;2.05;;;;;;;;;;5080403;28;20104;-76
2021/05/11 11:43:51;;;;;;;2.90;2.08;;;;;;;;;;5079429;28;20032;-76
2021/05/11 11:46:27;;;;;;;3.60;1.90;;;;;;;;;;5082385;28;20031;-76
2021/05/11 11:48:58;;;;;;;5.70;2.00;;;;;;;;;;5120930;28;20448;-76
2021/05/11 11:51:31;;;;;;;4.70;1.90;;;;;;;;;;5119815;28;20032;-76
2021/05/11 11:54:05;;;;;;;5.28;2.70;;;;;;;;;;5121070;28;20067;-76
2021/05/11 11:57:44;;;;;;;6.28;2.22;;;;;;;;;;5120743;28;20098;-76
2021/05/11 11:59:21;;;;;;;10.23;2.17;;;;;;;;;;5120701;28;20318;-76
2021/05/11 12:01:57;;;;;;;8.40;2.10;;;;;;;;;;5120681;28;20024;-76
2021/05/11 12:04:23;;;;;;;5.90;2.35;;;;;;;;;;5120616;28;20028;-76
2021/05/11 12:06:51;;;;;;;10.63;2.70;;;;;;;;;;5120480;28;20031;-76
2021/05/11 12:09:17;;;;;;;10.05;3.20;;;;;;;;;;5120431;28;20042;-76
2021/05/11 12:11:44;;;;;;;5.60;2.88;;;;;;;;;;5120334;28;20345;-75
2021/05/11 12:14:10;;;;;;;7.60;2.50;;;;;;;;;;5120604;28;20128;-76
2021/05/11 12:16:49;;;;;;;6.68;2.92;;;;;;;;;;5120419;28;20413;-75
2021/05/11 12:19:24;;;;;;;5.50;2.35;;;;;;;;;;5120221;28;20337;-75
2021/05/11 12:22:05;;;;;;;4.70;2.22;;;;;;;;;;5120190;28;20027;-76
2021/05/11 12:24:34;;;;;;;9.05;3.58;;;;;;;;;;5120483;28;20028;-76
2021/05/11 12:27:12;;;;;;;7.25;3.05;;;;;;;;;;5119175;28;20456;-76
2021/05/11 12:29:39;;;;;;;8.55;2.75;;;;;;;;;;5120204;28;20028;-77
2021/05/11 12:32:05;;;;;;;4.85;2.53;;;;;;;;;;5120042;28;20020;-77
2021/05/11 12:34:31;;;;;;;6.60;2.28;;;;;;;;;;5119761;28;20058;-76
2021/05/11 12:37:00;;;;;;;6.95;3.35;;;;;;;;;;5119996;28;20024;-77
2021/05/11 12:42:15;;;;;;;7.25;2.40;;;;;;;;;;5119525;28;20069;-76
2021/05/11 12:44:42;;;;;;;8.57;3.17;;;;;;;;;;5119927;28;20027;-77
2021/05/11 12:47:09;;;;;;;10.57;2.60;;;;;;;;;;5119497;28;20079;-76
2021/05/11 12:49:35;;;;;;;6.68;2.72;;;;;;;;;;5119667;28;20353;-76
2021/05/11 12:52:03;;;;;;;5.85;2.70;;;;;;;;;;5118662;28;20107;-77
2021/05/11 13:25:41;;;;;;;5.90;2.40;;;;;;;;;;5119200;28;20030;-77
2021/05/11 13:35:56;;;;;;;7.35;2.42;;;;;;;;;;5118802;28;20096;-77
2021/05/11 13:38:22;;;;;;;12.35;3.15;;;;;;;;;;5119085;28;20016;-77
2021/05/11 13:40:49;;;;;;;7.45;2.25;;;;;;;;;;5118774;28;20024;-76
2021/05/11 13:43:15;;;;;;;5.82;2.10;;;;;;;;;;5118742;28;20024;-77
2021/05/11 13:45:42;;;;;;;4.97;2.10;;;;;;;;;;5117240;28;20081;-77
2021/05/11 13:50:58;;;;;;;6.13;1.98;;;;;;;;;;5119084;28;20040;-89
2021/05/11 13:53:27;;;;;;;10.98;3.30;;;;;;;;;;5118420;28;20044;-86
2021/05/11 13:56:08;;;;;;;8.30;2.50;;;;;;;;;;5119103;28;20089;-88
2021/05/11 14:04:05;;;;;;;7.57;2.58;;;;;;;;;;5118623;28;20415;-82
2021/05/11 14:06:32;;;;;;;6.10;2.80;;;;;;;;;;5117327;28;20030;-85
2021/05/11 14:08:58;;;;;;;14.20;2.60;;;;;;;;;;5117285;28;20043;-85
2021/05/11 14:11:24;;;;;;;4.10;1.95;;;;;;;;;;5118441;28;20402;-85
2021/05/11 14:13:50;;;;;;;10.13;2.50;;;;;;;;;;5118799;28;20115;-85
2021/05/11 14:16:16;;;;;;;9.73;2.08;;;;;;;;;;5118585;28;20023;-85
2021/05/11 14:18:42;;;;;;;8.85;2.88;;;;;;;;;;5118342;28;20041;-85
2021/05/11 14:21:08;;;;;;;9.43;2.47;;;;;;;;;;5118059;28;20024;-85
2021/05/11 14:23:34;;;;;;;7.35;4.57;;;;;;;;;;5118381;28;20069;-85
2021/05/11 14:26:01;;;;;;;5.65;2.05;;;;;;;;;;5118597;28;20065;-86
2021/05/11 14:28:27;;;;;;;9.65;3.33;;;;;;;;;;5118535;28;20035;-85
2021/05/11 14:30:53;;;;;;;8.38;2.50;;;;;;;;;;5118416;28;20016;-86
2021/05/11 14:33:20;;;;;;;10.02;3.13;;;;;;;;;;5117387;28;20110;-86
2021/05/11 14:35:46;;;;;;;7.10;2.60;;;;;;;;;;5118459;28;20084;-86
2021/05/11 14:38:12;;;;;;;7.43;2.35;;;;;;;;;;5116921;28;20027;-86
2021/05/11 14:40:38;;;;;;;10.52;2.03;;;;;;;;;;5116952;28;20035;-86
2021/05/11 14:43:04;;;;;;;8.40;2.35;;;;;;;;;;5118220;28;20053;-86
2021/05/11 14:45:30;;;;;;;8.52;2.90;;;;;;;;;;5118146;28;20062;-85
2021/05/11 14:47:56;;;;;;;6.18;2.78;;;;;;;;;;5117873;28;20096;-86
2021/05/11 14:50:23;;;;;;;9.48;3.25;;;;;;;;;;5118219;28;20032;-86
2021/05/11 14:52:52;;;;;;;5.65;2.28;;;;;;;;;;5118193;28;20402;-85
2021/05/11 14:55:19;;;;;;;9.82;2.20;;;;;;;;;;5118010;28;20023;-86
2021/05/11 14:57:45;;;;;;;10.98;2.55;;;;;;;;;;5118284;28;20019;-85
2021/05/11 15:00:13;;;;;;;8.00;2.20;;;;;;;;;;5118122;28;20022;-86
2021/05/11 15:02:39;;;;;;;9.10;2.17;;;;;;;;;;5118242;28;20020;-86
2021/05/11 15:05:05;;;;;;;9.20;2.38;;;;;;;;;;5124037;28;20106;-87
2021/05/11 15:07:35;;;;;;;10.65;2.95;;;;;;;;;;5124829;28;20028;-86
2021/05/11 15:10:01;;;;;;;13.10;2.80;;;;;;;;;;5124546;27;20035;-86
2021/05/11 15:12:27;;;;;;;5.50;2.25;;;;;;;;;;5124820;28;20027;-85
2021/05/11 15:14:53;;;;;;;10.65;2.58;;;;;;;;;;5124908;28;20031;-87
2021/05/11 15:19:51;;;;;;;10.02;2.65;;;;;;;;;;5124608;28;20069;-86
2021/05/11 15:22:18;;;;;;;13.32;3.22;;;;;;;;;;5124703;28;20020;-87
2021/05/11 15:24:44;;;;;;;6.15;2.70;;;;;;;;;;5124793;28;20755;-86
2021/05/11 15:27:10;;;;;;;6.25;2.47;;;;;;;;;;5124783;28;20105;-86
2021/05/11 15:29:40;;;;;;;7.70;2.30;;;;;;;;;;5123598;28;20031;-86
2021/05/11 15:32:26;;;;;;;4.45;2.10;;;;;;;;;;5124376;28;20019;-86
2021/05/11 15:34:52;;;;;;;7.15;2.58;;;;;;;;;;5124240;28;20023;-86
2021/05/11 15:37:18;;;;;;;14.18;2.83;;;;;;;;;;5124330;28;20511;-86
2021/05/11 15:39:45;;;;;;;14.23;3.17;;;;;;;;;;5123416;28;20329;-86
2021/05/11 15:42:11;;;;;;;6.47;2.80;;;;;;;;;;5124572;28;20417;-86
2021/05/11 15:44:37;;;;;;;12.18;2.70;;;;;;;;;;5124380;28;20425;-85
2021/05/11 15:47:03;;;;;;;14.85;3.17;;;;;;;;;;5124164;28;20122;-85
2021/05/11 15:49:30;;;;;;;8.95;3.00;;;;;;;;;;5124112;28;20042;-85
2021/05/11 15:51:56;;;;;;;5.72;1.75;;;;;;;;;;5124187;27;20059;-85
2021/05/11 15:54:22;;;;;;;8.52;2.65;;;;;;;;;;5123013;28;20042;-86
2021/05/11 15:56:48;;;;;;;7.18;2.20;;;;;;;;;;5124549;28;20023;-85
2021/05/11 15:59:14;;;;;;;7.78;2.47;;;;;;;;;;5124447;28;20027;-86
2021/05/11 16:01:40;;;;;;;7.97;3.03;;;;;;;;;;5123246;28;20054;-85
2021/05/11 16:04:06;;;;;;;9.85;2.30;;;;;;;;;;5124073;28;20430;-84
2021/05/11 16:06:32;;;;;;;6.53;1.98;;;;;;;;;;5124603;28;20027;-86
2021/05/11 16:08:58;;;;;;;12.35;4.28;;;;;;;;;;5124209;28;20065;-85
2021/05/11 16:11:24;;;;;;;6.95;3.75;;;;;;;;;;5124182;28;20050;-86
2021/05/11 16:13:50;;;;;;;11.23;3.88;;;;;;;;;;5124128;28;20015;-86
2021/05/11 16:16:16;;;;;;;10.02;4.55;;;;;;;;;;5120876;28;20024;-81
2021/05/11 16:18:42;;;;;;;11.20;6.60;;;;;;;;;;5121197;28;20024;-90
2021/05/11 16:21:08;;;;;;;15.70;11.65;;;;;;;;;;5120303;28;20047;-92
2021/05/11 16:23:34;;;;;;;13.65;4.10;;;;;;;;;;5121003;28;20023;-92
2021/05/11 16:26:01;;;;;;;14.05;3.78;;;;;;;;;;5119701;28;20133;-94
2021/05/11 16:28:27;;;;;;;8.93;3.28;;;;;;;;;;5121108;28;20325;-93
2021/05/11 16:30:53;;;;;;;11.13;4.10;;;;;;;;;;5119621;28;20396;-93
2021/05/11 16:33:19;;;;;;;13.18;8.68;;;;;;;;;;5119468;28;20044;-93
2021/05/11 16:35:46;;;;;;;11.45;4.20;;;;;;;;;;5120786;28;20016;-92
2021/05/11 16:38:13;;;;;;;11.93;4.15;;;;;;;;;;5119762;28;20023;-93
2021/05/11 16:40:40;;;;;;;14.15;6.75;;;;;;;;;;5120975;28;20398;-92
2021/05/11 16:43:06;;;;;;;9.05;5.15;;;;;;;;;;5119308;28;20036;-91
2021/05/11 16:45:33;;;;;;;12.52;5.38;;;;;;;;;;5120667;28;20139;-92
2021/05/11 16:48:00;;;;;;;12.15;4.28;;;;;;;;;;5119973;28;20493;-92
2021/05/11 16:50:27;;;;;;;4.43;3.05;;;;;;;;;;5120174;28;20116;-92
2021/05/11 16:52:54;;;;;;;8.60;2.35;;;;;;;;;;5120233;28;20402;-91
2021/05/11 16:55:20;;;;;;;4.38;2.22;;;;;;;;;;5119548;28;20030;-93
2021/05/11 16:57:47;;;;;;;12.93;5.55;;;;;;;;;;5118963;28;20173;-92
2021/05/11 17:00:13;;;;;;;9.73;3.60;;;;;;;;;;5119318;28;20405;-92
2021/05/11 17:02:39;;;;;;;12.10;2.88;;;;;;;;;;5120449;28;20023;-92
2021/05/11 17:05:06;;;;;;;9.50;4.10;;;;;;;;;;5120022;28;20102;-93
2021/05/11 17:07:33;;;;;;;6.78;3.20;;;;;;;;;;5119269;28;20136;-92
2021/05/11 17:09:59;;;;;;;7.13;2.90;;;;;;;;;;5119946;28;20414;-92
2021/05/11 17:12:25;;;;;;;9.23;4.00;;;;;;;;;;5119899;28;20394;-94
2021/05/11 17:14:51;;;;;;;6.07;3.15;;;;;;;;;;5119145;28;20020;-93
2021/05/11 17:17:17;;;;;;;7.95;3.13;;;;;;;;;;5118704;28;20031;-94
2021/05/11 17:19:43;;;;;;;10.70;5.07;;;;;;;;;;5120000;28;20053;-93
2021/05/11 17:22:09;;;;;;;11.15;4.20;;;;;;;;;;5118809;28;20329;-93
2021/05/11 17:24:35;;;;;;;6.72;3.83;;;;;;;;;;5119957;28;20049;-92
2021/05/11 17:27:01;;;;;;;5.45;2.65;;;;;;;;;;5118690;28;20031;-92
2021/05/11 17:29:28;;;;;;;7.90;2.60;;;;;;;;;;5118718;28;20019;-92
2021/05/11 17:31:54;;;;;;;7.93;2.45;;;;;;;;;;5118791;28;20299;-93
2021/05/11 17:34:20;;;;;;;6.47;3.10;;;;;;;;;;5119423;28;20035;-94
2021/05/11 17:36:46;;;;;;;11.43;5.85;;;;;;;;;;5118611;28;20347;-94
2021/05/11 17:39:13;;;;;;;11.32;5.72;;;;;;;;;;5121994;28;20112;-94
2021/05/11 17:41:39;;;;;;;15.68;4.80;;;;;;;;;;5120465;28;20024;-94
2021/05/11 17:44:05;;;;;;;10.80;3.30;;;;;;;;;;5112321;28;20126;-94
2021/05/11 17:46:31;;;;;;;4.60;2.88;;;;;;;;;;5122725;28;20036;-94
2021/05/11 17:48:58;;;;;;;7.80;2.80;;;;;;;;;;5121864;28;20031;-93
2021/05/11 17:51:24;;;;;;;5.85;2.10;;;;;;;;;;5121048;28;20027;-94
2021/05/11 17:53:50;;;;;;;8.02;2.15;;;;;;;;;;5119369;28;20023;-94
2021/05/11 17:56:17;;;;;;;5.63;2.08;;;;;;;;;;5120308;28;20106;-94
2021/05/11 17:58:43;;;;;;;12.55;2.58;;;;;;;;;;5120002;28;20426;-93
2021/05/11 18:01:09;;;;;;;6.88;2.70;;;;;;;;;;5119408;28;20020;-91
2021/05/11 18:03:35;;;;;;;6.00;2.35;;;;;;;;;;5120267;27;20118;-94
2021/05/11 18:06:01;;;;;;;8.27;2.50;;;;;;;;;;5138908;27;20037;-93
2021/05/11 18:08:30;;;;;;;13.45;2.10;;;;;;;;;;5139106;27;20019;-93
2021/05/11 18:10:59;;;;;;;8.32;3.10;;;;;;;;;;5124312;27;20023;-79
2021/05/11 18:13:26;;;;;;;7.28;2.33;;;;;;;;;;5117893;28;20055;-90
2021/05/11 18:15:52;;;;;;;4.90;2.38;;;;;;;;;;5119860;28;20012;-89
2021/05/11 18:18:18;;;;;;;7.07;2.63;;;;;;;;;;5118224;28;20043;-89
2021/05/11 18:20:45;;;;;;;6.20;2.70;;;;;;;;;;5118378;28;20027;-90
2021/05/11 18:23:11;;;;;;;6.75;2.40;;;;;;;;;;5117493;28;20106;-90
2021/05/11 18:25:37;;;;;;;10.50;2.40;;;;;;;;;;5117030;28;20031;-89
2021/05/11 18:28:03;;;;;;;12.98;2.63;;;;;;;;;;5118353;28;20055;-90
2021/05/11 18:30:29;;;;;;;11.25;2.70;;;;;;;;;;5118370;28;20275;-87
2021/05/11 18:32:57;;;;;;;5.80;2.80;;;;;;;;;;5118267;28;20027;-87
2021/05/11 18:35:27;;;;;;;9.85;3.80;;;;;;;;;;5133718;27;20019;-89
2021/05/11 18:37:59;;;;;;;5.50;2.42;;;;;;;;;;5138454;27;20027;-89
2021/05/11 18:40:25;;;;;;;6.45;4.32;;;;;;;;;;5138442;27;20062;-89
2021/05/11 18:42:52;;;;;;;8.32;3.70;;;;;;;;;;5138973;27;20026;-89
2021/05/11 18:45:18;;;;;;;6.88;4.45;;;;;;;;;;5137723;27;20496;-88
2021/05/11 18:47:57;;;;;;;4.10;2.85;;;;;;;;;;5137648;27;20329;-89
2021/05/11 18:50:28;;;;;;;8.27;4.25;;;;;;;;;;5138410;27;20410;-89
2021/05/11 18:52:54;;;;;;;7.47;3.30;;;;;;;;;;5138741;27;20027;-89
2021/05/11 18:55:21;;;;;;;5.80;2.33;;;;;;;;;;5138722;27;20027;-89
2021/05/11 18:57:47;;;;;;;8.25;4.85;;;;;;;;;;5137646;27;20026;-88
2021/05/11 19:00:14;;;;;;;13.20;4.28;;;;;;;;;;5137581;27;20034;-90
2021/05/11 19:02:40;;;;;;;4.28;2.90;;;;;;;;;;5137426;28;20031;-90
2021/05/11 19:05:06;;;;;;;9.70;3.10;;;;;;;;;;5137835;28;20301;-85
2021/05/11 19:07:33;;;;;;;6.28;3.15;;;;;;;;;;5137249;28;20080;-87
2021/05/11 19:10:00;;;;;;;4.05;2.20;;;;;;;;;;5137940;28;20027;-79
2021/05/11 19:12:26;;;;;;;6.45;2.75;;;;;;;;;;5137752;28;20020;-79
2021/05/11 19:14:52;;;;;;;6.90;2.80;;;;;;;;;;5137888;27;20031;-79
2021/05/11 19:17:19;;;;;;;5.68;2.75;;;;;;;;;;5137813;28;20019;-78